Dunswell, United Kingdom
Current Conditions -  °F | °C
As of 4:50 PM on Friday 28 Nov 2014 (Local Time) from EGXV Reporting Station
Haze Haze  
Wind Chill: 10°   Ceiling: 300
Heat Index: 10°   Visibility: 2.5mi
Dew Point: 10°   Wind: 9mph
Humidity: 100%   Direction: 80°E
Pressure: 29.77"   Gusts: NA
Location:  53.8°N, 0.37°W
Report Text: EGXV 281650Z AUTO 08008KT 4100 BR OVC003/// 10/10 Q1008 RERA
Loading
Personal Weather Stations






























Interactive Weather Map New forecast layout! Learn more

10-Day Weather Forecast

Advertisements
Track Severe Weather on mobile